Terminal Aerodrome Forecast
Issued by NWS

Home | Current Version | Previous Version | Text Only | Print | Product List | Glossary On
Versions: 1 2 3 4 5 6 7 8 9 10 11 12 13 14 15 16 17 18 19 20 21 22 23 24 25 26 27 28 29 30 31 32 33 34 35 36 37 38 39 40 41 42 43 44 45 46 47 48 49 50
924
FTUS45 KBOU 211631 AAB
TAFBJC
TAF AMD
KBJC 211631Z 2117/2212 03013KT P6SM -SHRA BKN025 OVC050
     FM212000 08010KT P6SM SCT025 BKN050
     FM212300 19008KT P6SM FEW060 SCT110
     FM220300 26011KT P6SM FEW110 SCT250=

USA.gov is the U.S. government's official web portal to all federal, state and local government web resources and services.